createdAt,value
2022-09-28T00:02:37.234Z,5.90
2022-09-28T00:07:42.078Z,6.10
2022-09-28T00:12:47.071Z,5.15
2022-09-28T00:17:50.683Z,4.93
2022-09-28T00:22:54.478Z,5.03
2022-09-28T00:27:59.523Z,4.45
2022-09-28T00:33:03.228Z,4.85
2022-09-28T00:38:09.339Z,3.97
2022-09-28T00:43:22.043Z,4.75
2022-09-28T00:48:31.116Z,3.22
2022-09-28T00:53:39.292Z,4.57
2022-09-28T00:58:49.630Z,5.88
2022-09-28T01:03:53.778Z,2.65
2022-09-28T01:09:03.604Z,4.47
2022-09-28T01:14:12.607Z,3.40
2022-09-28T01:19:45.683Z,4.00
2022-09-28T01:24:51.549Z,3.88
2022-09-28T01:30:07.489Z,5.22
2022-09-28T01:35:17.789Z,3.38
2022-09-28T01:40:25.543Z,6.43
2022-09-28T01:45:46.255Z,5.80
2022-09-28T01:50:56.442Z,6.20
2022-09-28T01:56:11.717Z,4.68
2022-09-28T02:01:25.534Z,5.90
2022-09-28T02:06:35.332Z,2.90
2022-09-28T02:11:46.789Z,2.95
2022-09-28T02:16:55.452Z,4.05
2022-09-28T02:22:23.430Z,5.53
2022-09-28T02:27:37.510Z,4.32
2022-09-28T02:32:48.059Z,3.90
2022-09-28T02:37:52.748Z,4.03
2022-09-28T02:43:09.829Z,3.55
2022-09-28T02:49:00.194Z,2.67
2022-09-28T02:54:46.301Z,2.85
2022-09-28T03:00:05.482Z,3.58
2022-09-28T03:05:22.112Z,3.50
2022-09-28T03:10:34.834Z,4.93
2022-09-28T03:15:39.309Z,2.88
2022-09-28T03:20:44.570Z,3.88
2022-09-28T03:25:48.331Z,2.67
2022-09-28T03:30:52.171Z,3.72
2022-09-28T03:35:57.807Z,2.28
2022-09-28T03:41:02.270Z,2.30
2022-09-28T03:46:11.532Z,2.72
2022-09-28T03:51:21.874Z,2.38
2022-09-28T03:56:25.501Z,2.08
2022-09-28T04:01:29.024Z,2.90
2022-09-28T04:06:34.119Z,4.05
2022-09-28T04:11:53.120Z,3.65
2022-09-28T04:17:01.900Z,4.65
2022-09-28T04:22:08.999Z,4.35
2022-09-28T04:27:30.199Z,2.78
2022-09-28T04:32:33.933Z,4.70
2022-09-28T04:37:39.187Z,3.05
2022-09-28T04:42:43.432Z,3.35
2022-09-28T04:47:47.028Z,3.60
2022-09-28T04:53:15.048Z,2.28
2022-09-28T04:58:19.049Z,3.08
2022-09-28T05:03:23.384Z,1.92
2022-09-28T05:27:46.404Z,4.05
2022-09-28T05:45:55.950Z,3.10
2022-09-28T05:51:00.102Z,1.77
2022-09-28T06:06:45.697Z,3.10
2022-09-28T06:11:49.462Z,2.95
2022-09-28T06:17:05.323Z,3.60
2022-09-28T06:22:09.138Z,4.15
2022-09-28T06:27:21.747Z,5.50
2022-09-28T06:32:29.283Z,3.00
2022-09-28T06:42:38.630Z,2.90
2022-09-28T06:48:08.514Z,3.40
2022-09-28T06:53:16.504Z,2.90
2022-09-28T06:58:31.404Z,6.20
2022-09-28T07:03:37.690Z,5.65
2022-09-28T07:09:07.893Z,4.33
2022-09-28T07:14:47.386Z,2.65
2022-09-28T07:19:53.703Z,16.40
2022-09-28T07:24:58.767Z,12.15
2022-09-28T07:30:21.213Z,9.00
2022-09-28T07:35:58.391Z,6.57
2022-09-28T07:41:16.907Z,7.05
2022-09-28T07:46:24.221Z,10.50
2022-09-28T07:51:36.255Z,11.20
2022-09-28T07:57:01.014Z,10.30
2022-09-28T08:02:20.381Z,12.55
2022-09-28T08:07:25.721Z,10.15
2022-09-28T08:12:40.733Z,11.40
2022-09-28T08:18:07.502Z,12.95
2022-09-28T08:23:13.100Z,10.23
2022-09-28T08:28:19.285Z,10.43
2022-09-28T08:33:24.801Z,13.03
2022-09-28T08:44:24.103Z,14.45
2022-09-28T08:49:58.947Z,9.73
2022-09-28T08:55:39.096Z,15.27
2022-09-28T09:00:49.564Z,12.75
2022-09-28T09:06:08.955Z,10.73
2022-09-28T09:11:51.300Z,8.70
2022-09-28T09:17:11.593Z,10.25
2022-09-28T09:22:52.687Z,9.95
2022-09-28T09:28:28.013Z,11.15
2022-09-28T09:34:21.377Z,10.52
2022-09-28T09:40:08.271Z,8.63
2022-09-28T09:45:55.945Z,8.52
2022-09-28T09:51:41.209Z,9.88
2022-09-28T09:56:54.912Z,8.35
2022-09-28T10:02:27.968Z,10.70
2022-09-28T10:07:52.091Z,10.57
2022-09-28T10:12:56.387Z,7.35
2022-09-28T10:18:07.868Z,9.73
2022-09-28T10:40:43.574Z,7.57
2022-09-28T10:45:48.281Z,5.40
2022-09-28T10:51:08.844Z,7.15
2022-09-28T10:56:24.251Z,6.32
2022-09-28T11:01:35.333Z,6.70
2022-09-28T11:06:42.928Z,6.25
2022-09-28T11:11:49.897Z,6.05
2022-09-28T11:17:21.674Z,5.50
2022-09-28T11:22:30.152Z,6.80
2022-09-28T11:27:40.451Z,7.63
2022-09-28T11:32:46.940Z,7.30
2022-09-28T11:38:24.745Z,5.57
2022-09-28T11:44:20.585Z,5.43
2022-09-28T11:49:41.662Z,6.07
2022-09-28T11:54:52.060Z,7.35
2022-09-28T12:00:02.755Z,5.38
2022-09-28T12:05:21.255Z,6.45
2022-09-28T12:10:44.665Z,5.45
2022-09-28T12:16:23.321Z,5.90
2022-09-28T12:21:45.202Z,5.70
2022-09-28T12:26:56.355Z,6.57
2022-09-28T12:32:12.187Z,7.13
2022-09-28T12:37:44.504Z,6.72
2022-09-28T12:43:19.636Z,6.55
2022-09-28T12:55:08.224Z,5.47
2022-09-28T13:00:16.270Z,5.32
2022-09-28T13:06:09.728Z,4.75
2022-09-28T13:11:26.370Z,6.38
2022-09-28T13:16:40.428Z,7.22
2022-09-28T13:21:53.830Z,5.25
2022-09-28T13:27:05.641Z,5.47
2022-09-28T13:32:12.689Z,5.05
2022-09-28T13:37:25.660Z,5.15
2022-09-28T13:43:03.621Z,4.97
2022-09-28T13:48:17.315Z,3.70
2022-09-28T13:53:40.622Z,5.05
2022-09-28T13:58:49.807Z,4.88
2022-09-28T14:04:13.545Z,4.53
2022-09-28T14:09:43.791Z,4.65
2022-09-28T14:14:52.074Z,4.35
2022-09-28T14:20:03.541Z,4.35
2022-09-28T14:25:17.222Z,5.30
2022-09-28T14:30:25.747Z,4.45
2022-09-28T14:35:35.246Z,4.43
2022-09-28T14:41:10.598Z,4.97
2022-09-28T14:46:45.881Z,6.10
2022-09-28T14:52:12.380Z,4.68
2022-09-28T14:57:24.102Z,4.80
2022-09-28T15:02:33.426Z,2.97
2022-09-28T15:07:48.649Z,4.65
2022-09-28T15:12:56.072Z,4.22
2022-09-28T15:18:43.753Z,3.72
2022-09-28T15:23:48.111Z,4.80
2022-09-28T15:28:52.940Z,4.85
2022-09-28T15:34:14.245Z,3.22
2022-09-28T15:39:36.880Z,4.53
2022-09-28T15:44:45.696Z,4.25
2022-09-28T15:49:59.417Z,6.72
2022-09-28T15:55:07.176Z,3.70
2022-09-28T16:05:42.941Z,4.55
2022-09-28T16:10:59.385Z,4.03
2022-09-28T16:16:04.441Z,5.93
2022-09-28T16:21:45.018Z,3.25
2022-09-28T16:26:49.372Z,5.20
2022-09-28T16:31:55.362Z,5.32
2022-09-28T16:36:58.969Z,7.63
2022-09-28T16:42:05.035Z,7.32
2022-09-28T16:47:09.964Z,10.82
2022-09-28T16:52:13.863Z,6.55
2022-09-28T16:57:17.666Z,3.72
2022-09-28T17:07:50.720Z,5.80
2022-09-28T17:12:54.209Z,6.78
2022-09-28T17:17:59.194Z,5.57
2022-09-28T17:23:02.992Z,3.97
2022-09-28T17:28:07.069Z,3.85
2022-09-28T17:33:13.351Z,5.43
2022-09-28T17:38:17.739Z,6.32
2022-09-28T17:43:22.231Z,4.18
2022-09-28T17:48:27.192Z,5.53
2022-09-28T17:53:30.748Z,5.05
2022-09-28T17:58:34.370Z,6.03
2022-09-28T18:03:39.609Z,3.17
2022-09-28T18:08:43.900Z,3.53
2022-09-28T18:13:47.423Z,3.88
2022-09-28T18:18:52.477Z,4.47
2022-09-28T18:23:56.385Z,3.13
2022-09-28T18:29:00.193Z,3.85
2022-09-28T18:34:05.975Z,3.45
2022-09-28T18:39:09.883Z,3.25
2022-09-28T18:44:13.834Z,3.90
2022-09-28T18:49:19.252Z,2.80
2022-09-28T18:54:24.579Z,3.70
2022-09-28T18:59:28.547Z,3.92
2022-09-28T19:04:33.507Z,2.83
2022-09-28T19:09:37.214Z,3.17
2022-09-28T19:14:41.059Z,2.67
2022-09-28T19:19:45.949Z,4.32
2022-09-28T19:24:49.430Z,2.67
2022-09-28T19:29:53.176Z,3.63
2022-09-28T19:34:58.603Z,2.53
2022-09-28T19:40:03.955Z,2.17
2022-09-28T19:45:08.997Z,2.55
2022-09-28T19:50:13.966Z,2.28
2022-09-28T19:55:19.053Z,2.78
2022-09-28T20:00:22.706Z,2.67
2022-09-28T20:05:27.746Z,6.32
2022-09-28T20:10:31.305Z,6.60
2022-09-28T20:15:37.381Z,9.48
2022-09-28T20:20:43.059Z,6.85
2022-09-28T20:25:46.617Z,7.45
2022-09-28T20:30:50.203Z,6.68
2022-09-28T20:35:56.041Z,7.60
2022-09-28T20:41:01.838Z,8.27
2022-09-28T20:46:08.547Z,6.40
2022-09-28T20:51:17.756Z,6.28
2022-09-28T20:56:24.578Z,5.47
2022-09-28T21:01:30.535Z,4.67
2022-09-28T21:06:38.638Z,3.58
2022-09-28T21:11:42.073Z,3.97
2022-09-28T21:16:45.634Z,6.75
2022-09-28T21:21:50.511Z,3.58
2022-09-28T21:26:55.587Z,4.25
2022-09-28T21:31:59.159Z,4.85
2022-09-28T21:37:04.028Z,4.57
2022-09-28T21:42:07.932Z,4.90
2022-09-28T21:47:11.406Z,5.03
2022-09-28T21:52:16.601Z,6.05
2022-09-28T21:57:20.038Z,5.10
2022-09-28T22:02:23.842Z,6.35
2022-09-28T22:07:28.959Z,4.65
2022-09-28T22:12:32.591Z,5.05
2022-09-28T22:17:36.055Z,5.00
2022-09-28T22:22:40.915Z,5.32
2022-09-28T22:27:46.012Z,3.90
2022-09-28T22:32:49.551Z,5.20
2022-09-28T22:37:54.570Z,4.53
2022-09-28T22:42:58.109Z,6.15
2022-09-28T22:48:01.584Z,5.00
2022-09-28T22:53:07.052Z,4.90
2022-09-28T22:58:10.744Z,4.50
2022-09-28T23:03:14.256Z,5.57
2022-09-28T23:08:19.195Z,3.78
2022-09-28T23:13:22.734Z,5.65
2022-09-28T23:18:30.104Z,4.78
2022-09-28T23:23:35.332Z,5.47
2022-09-28T23:28:38.914Z,5.85
2022-09-28T23:33:42.435Z,4.13
2022-09-28T23:38:47.405Z,5.45
2022-09-28T23:43:51.006Z,6.18
2022-09-28T23:48:54.897Z,5.90
2022-09-28T23:53:59.714Z,5.13
2022-09-28T23:59:03.262Z,5.88
